sensor_id;sensor_type;location;lat;lon;timestamp;pressure;altitude;pressure_sealevel;temperature;humidity
58973;BME280;44750;52.040;7.472;2024-02-28T05:01:11;103124.84;;;-2.14;100.00
58973;BME280;44750;52.040;7.472;2024-02-28T05:06:11;103194.53;;;-1.82;100.00
58973;BME280;44750;52.040;7.472;2024-02-28T05:11:12;103276.59;;;-1.50;100.00
58973;BME280;44750;52.040;7.472;2024-02-28T05:16:13;103320.75;;;-1.32;100.00
58973;BME280;44750;52.040;7.472;2024-02-28T05:21:13;103381.72;;;-1.10;100.00
58973;BME280;44750;52.040;7.472;2024-02-28T05:26:16;103422.38;;;-0.96;100.00
58973;BME280;44750;52.040;7.472;2024-02-28T05:31:24;103470.16;;;-0.83;100.00
58973;BME280;44750;52.040;7.472;2024-02-28T05:36:26;103519.72;;;-0.75;100.00
58973;BME280;44750;52.040;7.472;2024-02-28T05:41:27;103572.91;;;-0.69;100.00
58973;BME280;44750;52.040;7.472;2024-02-28T05:46:29;103589.72;;;-0.68;100.00
58973;BME280;44750;52.040;7.472;2024-02-28T05:51:29;103622.50;;;-0.58;100.00
58973;BME280;44750;52.040;7.472;2024-02-28T05:56:29;103665.91;;;-0.50;100.00
58973;BME280;44750;52.040;7.472;2024-02-28T06:01:29;103692.50;;;-0.48;100.00
58973;BME280;44750;52.040;7.472;2024-02-28T06:06:29;103723.53;;;-0.44;100.00
58973;BME280;44750;52.040;7.472;2024-02-28T06:11:30;103757.25;;;-0.49;100.00
58973;BME280;44750;52.040;7.472;2024-02-28T06:16:30;103780.31;;;-0.45;100.00
58973;BME280;44750;52.040;7.472;2024-02-28T06:21:30;103811.34;;;-0.35;100.00
58973;BME280;44750;52.040;7.472;2024-02-28T06:26:31;103845.06;;;-0.34;100.00
58973;BME280;44750;52.040;7.472;2024-02-28T06:31:31;103848.59;;;-0.37;100.00
58973;BME280;44750;52.040;7.472;2024-02-28T06:36:32;103873.44;;;-0.30;100.00
58973;BME280;44750;52.040;7.472;2024-02-28T06:41:32;103884.06;;;-0.28;100.00
58973;BME280;44750;52.040;7.472;2024-02-28T06:46:32;103917.78;;;-0.20;100.00
58973;BME280;44750;52.040;7.472;2024-02-28T06:51:32;103958.59;;;-0.05;100.00
58973;BME280;44750;52.040;7.472;2024-02-28T06:56:33;103958.56;;;-0.07;100.00
58973;BME280;44750;52.040;7.472;2024-02-28T07:01:33;103961.22;;;-0.08;100.00
58973;BME280;44750;52.040;7.472;2024-02-28T07:06:33;103982.53;;;-0.02;100.00
58973;BME280;44750;52.040;7.472;2024-02-28T07:11:33;104013.59;;;0.07;100.00
58973;BME280;44750;52.040;7.472;2024-02-28T07:16:34;104030.44;;;0.16;100.00
58973;BME280;44750;52.040;7.472;2024-02-28T07:21:35;104039.31;;;0.22;100.00
58973;BME280;44750;52.040;7.472;2024-02-28T15:17:48;102848.13;;;5.52;100.00
58973;BME280;44750;52.040;7.472;2024-02-28T15:22:48;102736.97;;;5.74;100.00
58973;BME280;44750;52.040;7.472;2024-02-28T15:27:48;102688.25;;;6.01;100.00
58973;BME280;44750;52.040;7.472;2024-02-28T15:32:49;102654.94;;;6.23;100.00
58973;BME280;44750;52.040;7.472;2024-02-28T15:37:49;102584.38;;;6.35;100.00
58973;BME280;44750;52.040;7.472;2024-02-28T15:42:49;102467.78;;;6.36;100.00
58973;BME280;44750;52.040;7.472;2024-02-28T15:47:49;102385.97;;;6.40;100.00
58973;BME280;44750;52.040;7.472;2024-02-28T15:52:50;102287.16;;;6.44;100.00
58973;BME280;44750;52.040;7.472;2024-02-28T15:57:50;102201.91;;;6.44;100.00
58973;BME280;44750;52.040;7.472;2024-02-28T16:02:50;102108.53;;;6.46;100.00
58973;BME280;44750;52.040;7.472;2024-02-28T16:07:50;102044.56;;;6.51;100.00
58973;BME280;44750;52.040;7.472;2024-02-28T16:12:51;101980.56;;;6.57;100.00
58973;BME280;44750;52.040;7.472;2024-02-28T16:17:51;101886.41;;;6.57;100.00
58973;BME280;44750;52.040;7.472;2024-02-28T16:22:51;101798.91;;;6.51;100.00
58973;BME280;44750;52.040;7.472;2024-02-28T16:27:52;101715.81;;;6.46;100.00
58973;BME280;44750;52.040;7.472;2024-02-28T16:32:52;101631.91;;;6.41;100.00
58973;BME280;44750;52.040;7.472;2024-02-28T16:37:52;101552.47;;;6.35;100.00
58973;BME280;44750;52.040;7.472;2024-02-28T16:42:52;101487.22;;;6.33;100.00
58973;BME280;44750;52.040;7.472;2024-02-28T16:47:53;101457.09;;;6.41;100.00
58973;BME280;44750;52.040;7.472;2024-02-28T16:52:53;101404.91;;;6.44;100.00
58973;BME280;44750;52.040;7.472;2024-02-28T16:57:53;101362.97;;;6.41;100.00
58973;BME280;44750;52.040;7.472;2024-02-28T17:02:53;101294.44;;;6.34;100.00
58973;BME280;44750;52.040;7.472;2024-02-28T17:07:53;101239.72;;;6.35;100.00
58973;BME280;44750;52.040;7.472;2024-02-28T17:12:54;101205.59;;;6.35;100.00
58973;BME280;44750;52.040;7.472;2024-02-28T17:17:54;101147.66;;;6.31;100.00
58973;BME280;44750;52.040;7.472;2024-02-28T17:22:54;101080.91;;;6.25;100.00
58973;BME280;44750;52.040;7.472;2024-02-28T17:27:54;101020.88;;;6.13;100.00
58973;BME280;44750;52.040;7.472;2024-02-28T17:32:55;100994.00;;;6.13;100.00
58973;BME280;44750;52.040;7.472;2024-02-28T17:37:55;100939.72;;;6.08;100.00
58973;BME280;44750;52.040;7.472;2024-02-28T17:42:55;100894.50;;;6.02;100.00
58973;BME280;44750;52.040;7.472;2024-02-28T17:47:55;100830.50;;;5.96;100.00
58973;BME280;44750;52.040;7.472;2024-02-28T17:52:55;100785.28;;;5.90;100.00
58973;BME280;44750;52.040;7.472;2024-02-28T17:57:56;100760.97;;;5.91;100.00
58973;BME280;44750;52.040;7.472;2024-02-28T18:02:56;100698.06;;;5.82;100.00
58973;BME280;44750;52.040;7.472;2024-02-28T18:07:56;100653.91;;;5.86;100.00
58973;BME280;44750;52.040;7.472;2024-02-28T18:12:57;100613.47;;;5.88;100.00
58973;BME280;44750;52.040;7.472;2024-02-28T18:17:57;100568.16;;;5.83;100.00
58973;BME280;44750;52.040;7.472;2024-02-28T18:22:57;100520.91;;;5.81;100.00
58973;BME280;44750;52.040;7.472;2024-02-28T18:27:57;100463.19;;;5.75;100.00
58973;BME280;44750;52.040;7.472;2024-02-28T18:32:58;100421.94;;;5.76;100.00
58973;BME280;44750;52.040;7.472;2024-02-28T18:37:58;100368.50;;;5.73;100.00
58973;BME280;44750;52.040;7.472;2024-02-28T18:42:58;100322.22;;;5.69;100.00
58973;BME280;44750;52.040;7.472;2024-02-28T18:47:58;100261.25;;;5.60;100.00
58973;BME280;44750;52.040;7.472;2024-02-28T18:52:59;100236.22;;;5.60;100.00
58973;BME280;44750;52.040;7.472;2024-02-28T18:57:59;100206.69;;;5.60;100.00
58973;BME280;44750;52.040;7.472;2024-02-28T19:02:59;100162.28;;;5.56;100.00
58973;BME280;44750;52.040;7.472;2024-02-28T19:08:00;100127.41;;;5.56;100.00
58973;BME280;44750;52.040;7.472;2024-02-28T19:13:00;100076.38;;;5.56;100.00
58973;BME280;44750;52.040;7.472;2024-02-28T19:18:00;100008.44;;;5.55;100.00
58973;BME280;44750;52.040;7.472;2024-02-28T19:23:00;99943.03;;;5.56;100.00
58973;BME280;44750;52.040;7.472;2024-02-28T19:28:01;99880.56;;;5.54;100.00
58973;BME280;44750;52.040;7.472;2024-02-28T19:33:01;99797.63;;;5.51;100.00
58973;BME280;44750;52.040;7.472;2024-02-28T19:38:01;99733.88;;;5.53;100.00
58973;BME280;44750;52.040;7.472;2024-02-28T19:43:01;99828.00;;;5.51;100.00
58973;BME280;44750;52.040;7.472;2024-02-28T19:48:02;99840.72;;;5.49;100.00
58973;BME280;44750;52.040;7.472;2024-02-28T19:53:02;99788.59;;;5.52;100.00
58973;BME280;44750;52.040;7.472;2024-02-28T19:58:02;99672.91;;;5.45;100.00
58973;BME280;44750;52.040;7.472;2024-02-28T20:03:03;99593.78;;;5.49;100.00
58973;BME280;44750;52.040;7.472;2024-02-28T20:08:03;99527.19;;;5.53;100.00
58973;BME280;44750;52.040;7.472;2024-02-28T20:13:03;99443.47;;;5.49;100.00
58973;BME280;44750;52.040;7.472;2024-02-28T20:18:04;99385.94;;;5.52;100.00
58973;BME280;44750;52.040;7.472;2024-02-28T20:23:04;99381.41;;;5.52;100.00
58973;BME280;44750;52.040;7.472;2024-02-28T20:28:04;99303.72;;;5.51;100.00
58973;BME280;44750;52.040;7.472;2024-02-28T20:33:05;99222.50;;;5.49;100.00
58973;BME280;44750;52.040;7.472;2024-02-28T20:38:05;99151.91;;;5.48;100.00
58973;BME280;44750;52.040;7.472;2024-02-28T20:43:05;99095.56;;;5.48;100.00
58973;BME280;44750;52.040;7.472;2024-02-28T20:48:06;99038.84;;;5.51;100.00
58973;BME280;44750;52.040;7.472;2024-02-28T20:53:06;98995.28;;;5.58;100.00
58973;BME280;44750;52.040;7.472;2024-02-28T20:58:06;98923.81;;;5.57;100.00
58973;BME280;44750;52.040;7.472;2024-02-28T21:03:07;98880.50;;;5.60;100.00
58973;BME280;44750;52.040;7.472;2024-02-28T21:08:07;98822.81;;;5.56;100.00
58973;BME280;44750;52.040;7.472;2024-02-28T21:13:07;98787.44;;;5.52;100.00
58973;BME280;44750;52.040;7.472;2024-02-28T21:18:07;98755.41;;;5.50;100.00
58973;BME280;44750;52.040;7.472;2024-02-28T21:23:08;98848.13;;;5.45;100.00
58973;BME280;44750;52.040;7.472;2024-02-28T21:28:08;99126.56;;;5.43;100.00
58973;BME280;44750;52.040;7.472;2024-02-28T21:33:08;99150.66;;;5.34;100.00
58973;BME280;44750;52.040;7.472;2024-02-28T21:38:09;99142.03;;;5.23;100.00
58973;BME280;44750;52.040;7.472;2024-02-28T21:43:09;99105.78;;;5.18;100.00
58973;BME280;44750;52.040;7.472;2024-02-28T21:48:10;99104.72;;;5.11;100.00
58973;BME280;44750;52.040;7.472;2024-02-28T21:53:10;99086.88;;;5.02;100.00
